Home > Products > Valid Products > TAF

000
FTUS43 KDDC 281736
TAFHYS
TAF
KHYS 281736Z 2818/2918 31007KT P6SM FEW040
     FM290100 VRB06KT P6SM SKC
     FM291200 15008KT P6SM SCT250=



000
FTUS43 KDDC 281736
TAFDDC
TAF
KDDC 281736Z 2818/2918 31010KT P6SM FEW050
     FM290100 15007KT P6SM FEW250
     FM291200 20008KT P6SM VCTS SCT100CB SCT250
     FM291700 17012KT P6SM SCT100=



000
FTUS43 KDDC 281736
TAFGCK
TAF
KGCK 281736Z 2818/2918 31007KT P6SM FEW050
     FM290100 VRB06KT P6SM FEW250
     FM290400 14006KT P6SM SCT250
     FM291000 15009KT P6SM VCTS SCT100CB BKN250
     FM291500 17012KT P6SM SCT090=



000
FTUS43 KDDC 281122
TAFHYS
TAF
KHYS 281122Z 2812/2912 30008KT P6SM SKC=



000
FTUS43 KDDC 281122
TAFDDC
TAF
KDDC 281122Z 2812/2912 30010KT P6SM SKC=



000
FTUS43 KDDC 281122
TAFGCK
TAF
KGCK 281122Z 2812/2912 31009KT P6SM SKC=



000
FTUS43 KDDC 280520
TAFGCK
TAF
KGCK 280520Z 2806/2906 31008KT P6SM FEW250=



000
FTUS43 KDDC 272320
TAFGCK
TAF
KGCK 272320Z 2800/2824 31008KT P6SM BKN080
     FM281300 29006KT P6SM SCT250=



000
FTUS43 KDDC 272320
TAFDDC
TAF
KDDC 272320Z 2800/2824 24009KT P6SM VCTS BKN080CB
     FM280100 29006KT P6SM BKN150
     FM281200 29008KT P6SM SCT250=



000
FTUS43 KDDC 272320
TAFHYS
TAF
KHYS 272320Z 2800/2824 06006KT P6SM BKN080
     FM280600 33005KT P6SM BKN110
     FM281200 29007KT P6SM SCT200=



000
FTUS43 KDDC 271939 AAA
TAFGCK
TAF AMD
KGCK 271939Z 2720/2818 VRB06KT P6SM SCT060 BKN180
     FM272200 30012KT P6SM VCTS BKN070CB
     FM280100 32011KT P6SM BKN050
     FM280300 36012KT P6SM BKN150=



000
FTUS43 KDDC 271706 AAB
TAFHYS
TAF AMD
KHYS 271706Z 2717/2812 14008KT P6SM OVC009
     FM271800 14010KT P6SM BKN015
     FM272000 14009KT P6SM VCTS BKN050CB
     FM280400 17006KT P6SM BKN150=



000
FTUS43 KDDC 271501 AAB
TAFDDC
TAF AMD
KDDC 271501Z 2715/2812 28015KT P6SM OVC010
     FM271630 29014KT P6SM FEW010 SCT110
     FM272100 18012KT P6SM VCTS SCT200CB
     FM280300 24007KT P6SM SCT250=



000
FTUS43 KDDC 271419 AAA
TAFHYS
TAF AMD
KHYS 271419Z 2714/2812 16012KT P6SM FEW035 BKN040 OVC050
     FM271500 17012KT P6SM BKN030
     FM271800 14009KT P6SM VCTS BKN050CB
     FM280400 17006KT P6SM BKN150=



000
FTUS43 KDDC 271417 AAB
TAFDDC
TAF AMD
KDDC 271417Z 2714/2812 27014KT P6SM BKN004 OVC008
     FM271500 28015KT P6SM OVC008
     FM271600 29014KT P6SM FEW010 SCT110
     FM272100 18012KT P6SM VCTS SCT200CB
     FM280300 24007KT P6SM SCT250=



000
FTUS43 KDDC 262322
TAFHYS
TAF
KHYS 262322Z 2700/2724 14014G24KT P6SM VCTS BKN050CB
     FM270400 13011G21KT 3SM BR SCT003
     FM270500 13010G20KT 3SM BR BKN010
     FM270900 16010KT 3SM BR BKN025
     FM271500 17011KT P6SM VCSH BKN035=



000
FTUS43 KDDC 262322
TAFGCK
TAF
KGCK 262322Z 2700/2724 14015G25KT P6SM BKN250
     FM270500 10011G20KT P6SM SCT070
     FM270700 16011KT P6SM SCT080
     FM271200 23007KT 3SM BR BKN040
     FM271500 25010KT P6SM VCSH BKN250
     FM272200 25015G23KT P6SM VCSH BKN200
     FM272300 30013KT P6SM VCSH BKN150=



000
FTUS43 KDDC 262322
TAFDDC
TAF
KDDC 262322Z 2700/2724 14014G23KT P6SM BKN250
     FM270400 16013G24KT P6SM SCT003 WS020/17045KT
     FM270600 17012G22KT 5SM BR BKN040
     FM271100 19010KT 3SM BR SCT150
     FM271600 20011KT P6SM VCSH SCT250
     FM271900 19015G23KT P6SM VCSH SCT250=



000
FTUS43 KDDC 261305 AAA
TAFGCK
TAF AMD
KGCK 261305Z 2613/2712 05007KT P6SM SCT110
     FM261800 11010G22KT P6SM SCT250
     FM262000 15016G25KT P6SM SCT250
     FM270000 18017KT P6SM FEW250
     FM270600 17009KT P6SM FEW250=



000
FTUS43 KDDC 260540
TAFHYS
TAF
KHYS 260540Z 2606/2706 06009KT 6SM BR FEW030
     FM260700 07009KT 3SM BR SCT025
     FM261100 07009KT 1/2SM FG SCT003
     FM261300 10007KT 1SM BR SCT001
     FM261500 12005KT P6SM SCT010
     FM261700 15014G20KT P6SM VCTS SCT050CB=



000
FTUS43 KDDC 260540
TAFDDC
TAF
KDDC 260540Z 2606/2706 12008KT P6SM SKC
     FM261300 18007KT P6SM SKC
     FM261600 18020G30KT P6SM SKC=



000
FTUS43 KDDC 260540
TAFGCK
TAF
KGCK 260540Z 2606/2706 10009KT P6SM SKC
     FM261400 18017KT P6SM SKC
     FM261600 18020G30KT P6SM SKC=



    US Dept of Commerce
    National Oceanic and Atmospheric Administration
    National Weather Service
    1325 East West Highway
    Silver Spring, MD 20910
    Page Author: NWS Internet Services Team
Disclaimer
Information Quality
Credits
Glossary
Privacy Policy
Freedom of Information Act (FOIA)
About Us
Career Opportunities